Time;durP1;ratioP1;P1;durP2;ratioP2;P2;SDS_P1;SDS_P2;PMS_P1;PMS_P2;Temp;Humidity;BMP_temperature;BMP_pressure;BME280_temperature;BME280_humidity;BME280_pressure;Samples;Min_cycle;Max_cycle;Signal;HPM_P1;HPM_P2
2022/04/21 10:20:02;;;;;;;11.88;8.18;;;10.40;81.00;;;;;;1972893;72;26268;-61
2022/04/21 10:22:34;;;;;;;9.65;6.90;;;10.40;83.20;;;;;;1948610;73;21058;-59
2022/04/21 10:25:05;;;;;;;10.03;7.87;;;10.40;83.50;;;;;;1948537;73;21019;-60
2022/04/21 10:27:47;;;;;;;9.10;6.65;;;10.40;82.90;;;;;;1948325;73;21171;-62
2022/04/21 10:30:24;;;;;;;11.70;7.28;;;10.40;82.80;;;;;;1948120;73;21070;-58
2022/04/21 10:32:58;;;;;;;10.63;7.00;;;10.30;82.50;;;;;;1948476;73;21457;-57
2022/04/21 10:35:36;;;;;;;9.20;6.85;;;10.30;82.40;;;;;;1948342;73;21090;-59
2022/04/21 10:38:22;;;;;;;9.45;6.85;;;10.40;83.20;;;;;;1948414;73;21034;-58
2022/04/21 10:41:06;;;;;;;11.10;7.42;;;10.40;83.30;;;;;;1948467;73;21094;-61
2022/04/21 10:43:52;;;;;;;10.00;7.45;;;10.40;84.20;;;;;;1948431;73;21100;-61
2022/04/21 10:46:29;;;;;;;14.90;7.40;;;10.30;83.80;;;;;;1948597;73;21512;-57
2022/04/21 10:48:58;;;;;;;4.97;4.05;;;10.40;83.90;;;;;;1948262;73;21077;-60
2022/04/21 10:57:34;;;;;;;3.25;2.58;;;10.20;84.60;;;;;;1941035;73;21046;-58
2022/04/21 11:00:10;;;;;;;3.20;2.62;;;10.10;85.10;;;;;;1948367;73;21070;-59
2022/04/21 11:02:45;;;;;;;2.83;2.62;;;10.10;85.20;;;;;;1948518;73;21097;-59
2022/04/21 11:05:31;;;;;;;5.37;3.08;;;10.10;85.20;;;;;;1948440;73;21077;-61
2022/04/21 11:07:58;;;;;;;4.55;2.22;;;10.10;84.60;;;;;;1946142;73;21551;-62
2022/04/21 11:10:31;;;;;;;4.42;2.83;;;10.10;85.10;;;;;;1947337;73;21190;-60
2022/04/21 11:13:00;;;;;;;3.65;3.17;;;10.10;84.80;;;;;;1907419;75;21098;-61
2022/04/21 11:15:39;;;;;;;4.62;3.70;;;10.10;84.80;;;;;;1917015;75;21022;-62
2022/04/21 11:18:15;;;;;;;4.17;2.55;;;10.10;84.30;;;;;;1949032;73;21092;-57
2022/04/21 11:20:47;;;;;;;2.92;2.67;;;10.10;85.60;;;;;;1949274;73;21493;-58
2022/04/21 11:23:24;;;;;;;5.08;3.45;;;10.10;85.40;;;;;;1949298;73;21034;-60
2022/04/21 11:25:55;;;;;;;3.05;2.72;;;10.10;84.70;;;;;;1906712;75;21046;-60
2022/04/21 11:28:28;;;;;;;3.62;1.60;;;10.10;84.70;;;;;;1916944;75;21080;-60
2022/04/21 11:31:01;;;;;;;16.55;3.15;;;10.20;84.50;;;;;;1948453;73;21019;-60
2022/04/21 11:33:31;;;;;;;9.60;3.40;;;10.20;84.00;;;;;;1948424;74;20999;-60
2022/04/21 11:36:07;;;;;;;8.48;3.05;;;10.20;84.50;;;;;;1948340;74;21089;-60
2022/04/21 11:38:37;;;;;;;11.45;4.10;;;10.20;84.00;;;;;;1948453;74;21085;-60
2022/04/21 11:41:08;;;;;;;11.88;3.83;;;10.30;84.00;;;;;;1948348;74;21038;-60
2022/04/21 11:43:40;;;;;;;4.53;3.20;;;10.40;84.20;;;;;;1948348;74;20999;-60
2022/04/21 11:46:11;;;;;;;14.60;3.08;;;10.40;84.00;;;;;;1947316;73;20997;-59
2022/04/21 11:48:41;;;;;;;3.72;2.10;;;10.50;83.90;;;;;;1948551;74;21174;-60
2022/04/21 11:51:16;;;;;;;5.78;1.95;;;10.50;84.30;;;;;;1948346;74;21081;-60
2022/04/21 11:53:45;;;;;;;2.10;1.30;;;10.60;84.10;;;;;;1946761;74;21477;-60
2022/04/21 11:56:15;;;;;;;9.63;3.42;;;10.60;83.70;;;;;;1948440;74;21023;-60
2022/04/21 11:58:45;;;;;;;12.88;3.42;;;10.60;83.50;;;;;;1948402;74;21446;-60
2022/04/21 12:07:02;;;;;;;7.40;2.65;;;10.50;83.70;;;;;;1948494;74;21034;-60
2022/04/21 12:09:33;;;;;;;;;;;10.50;84.00;;;;;;1951280;73;20999;-60
2022/04/21 12:12:02;;;;;;;8.43;2.85;;;10.50;84.60;;;;;;1948366;74;20101;-60
2022/04/21 12:14:32;;;;;;;3.30;3.08;;;10.50;83.90;;;;;;1948447;73;21084;-60
2022/04/21 12:17:02;;;;;;;5.03;2.15;;;10.40;84.00;;;;;;1948465;74;21026;-60
2022/04/21 12:19:48;;;;;;;7.05;2.40;;;10.40;83.70;;;;;;1948404;74;21106;-59
2022/04/21 12:22:19;;;;;;;4.25;2.30;;;10.40;83.70;;;;;;1947341;73;21104;-60
2022/04/21 12:24:50;;;;;;;5.37;3.35;;;10.50;84.80;;;;;;1908035;75;21007;-60
2022/04/21 12:27:28;;;;;;;2.65;2.00;;;10.50;84.40;;;;;;1958725;73;21026;-60
2022/04/21 12:30:00;;;;;;;1.50;1.17;;;10.50;83.80;;;;;;1908776;75;21074;-59
2022/04/21 12:32:34;;;;;;;4.97;2.50;;;10.50;84.70;;;;;;1958660;73;20987;-60
2022/04/21 12:35:09;;;;;;;4.35;2.50;;;10.40;84.20;;;;;;1910533;75;21092;-60
2022/04/21 12:37:41;;;;;;;3.05;2.10;;;10.40;85.00;;;;;;1958823;73;21096;-60
2022/04/21 12:40:12;;;;;;;6.05;2.52;;;10.20;86.00;;;;;;1878861;76;21059;-60
2022/04/21 12:42:41;;;;;;;3.98;2.62;;;10.20;85.40;;;;;;1958559;73;21080;-60
2022/04/21 12:45:12;;;;;;;3.67;2.87;;;10.20;85.40;;;;;;1910511;75;21006;-60
2022/04/21 12:47:45;;;;;;;3.67;3.25;;;10.20;86.40;;;;;;1958534;73;21022;-60
2022/04/21 12:50:24;;;;;;;7.53;3.40;;;10.20;85.90;;;;;;1910583;75;21093;-60
2022/04/21 12:52:55;;;;;;;7.75;4.90;;;10.20;85.80;;;;;;1958733;73;21088;-60
2022/04/21 12:55:27;;;;;;;4.03;3.05;;;10.30;86.10;;;;;;1910057;75;21047;-60
2022/04/21 12:58:07;;;;;;;4.78;3.60;;;10.40;86.20;;;;;;1958727;73;20990;-60
2022/04/21 13:00:38;;;;;;;4.25;3.67;;;10.50;85.80;;;;;;1910605;75;21175;-60
2022/04/21 13:03:10;;;;;;;3.90;2.60;;;10.60;85.80;;;;;;1958568;73;20998;-60
2022/04/21 13:05:51;;;;;;;5.10;3.00;;;10.70;86.10;;;;;;1910616;75;21539;-60
2022/04/21 13:08:21;;;;;;;3.47;2.20;;;10.90;85.40;;;;;;1958631;73;21018;-60
2022/04/21 13:10:51;;;;;;;3.92;2.47;;;11.00;85.20;;;;;;1910544;75;21030;-60
2022/04/21 13:13:20;;;;;;;2.65;1.72;;;11.10;84.90;;;;;;1958539;73;21096;-61
2022/04/21 13:15:49;;;;;;;3.67;1.65;;;11.20;85.20;;;;;;1910556;75;21027;-61
2022/04/21 13:18:19;;;;;;;1.60;1.10;;;11.30;84.70;;;;;;1958544;73;21022;-61
2022/04/21 13:23:36;;;;;;;2.00;1.37;;;11.50;84.50;;;;;;1905897;75;21058;-61
2022/04/21 13:26:06;;;;;;;1.77;1.30;;;11.50;84.20;;;;;;1952210;73;21085;-61
2022/04/21 13:28:35;;;;;;;1.60;1.35;;;11.50;84.40;;;;;;1952343;73;21092;-61
2022/04/21 13:33:52;;;;;;;2.40;1.90;;;11.50;84.70;;;;;;1952259;73;21034;-60
2022/04/21 13:36:22;;;;;;;1.47;1.37;;;11.50;84.70;;;;;;1952367;73;21081;-61
2022/04/21 13:38:51;;;;;;;1.75;1.52;;;11.50;84.30;;;;;;1952351;73;21026;-61
2022/04/21 13:41:21;;;;;;;3.47;1.47;;;11.60;84.30;;;;;;1952303;73;21084;-61
2022/04/21 13:43:50;;;;;;;3.62;1.40;;;11.70;84.40;;;;;;1952328;73;21089;-60
2022/04/21 13:46:19;;;;;;;1.25;0.88;;;11.80;84.30;;;;;;1952389;73;21026;-61
2022/04/21 13:48:48;;;;;;;1.02;0.93;;;11.90;84.40;;;;;;1952455;73;20990;-60
2022/04/21 13:51:18;;;;;;;1.22;1.12;;;11.90;84.10;;;;;;1952466;73;21104;-60
2022/04/21 13:53:47;;;;;;;1.52;1.42;;;11.90;83.80;;;;;;1952342;73;21003;-60
2022/04/21 13:56:16;;;;;;;3.37;2.25;;;11.90;84.30;;;;;;1952473;73;21084;-60
2022/04/21 13:58:45;;;;;;;3.45;2.40;;;11.80;84.50;;;;;;1952227;73;22294;-59
2022/04/21 14:01:17;;;;;;;1.85;1.60;;;11.80;84.80;;;;;;1952288;73;21007;-60
2022/04/21 14:03:48;;;;;;;1.30;1.20;;;11.80;84.70;;;;;;1952446;73;21066;-60
2022/04/21 14:06:17;;;;;;;2.25;2.05;;;11.80;84.60;;;;;;1952364;73;20998;-60
2022/04/21 14:08:47;;;;;;;2.00;1.20;;;11.80;84.80;;;;;;1952342;73;21018;-60
2022/04/21 14:11:17;;;;;;;1.27;1.17;;;11.90;84.80;;;;;;1952217;73;21109;-60
2022/04/21 14:13:47;;;;;;;1.85;1.40;;;11.90;84.60;;;;;;1952266;73;21018;-60
2022/04/21 14:16:17;;;;;;;2.80;2.40;;;11.90;84.80;;;;;;1952227;73;20994;-60
2022/04/21 14:18:47;;;;;;;1.77;1.30;;;11.90;84.20;;;;;;1952242;73;21018;-61
2022/04/21 14:21:19;;;;;;;2.02;1.60;;;12.00;84.40;;;;;;1950119;73;21019;-60
2022/04/21 14:23:47;;;;;;;2.05;1.42;;;12.00;84.70;;;;;;1948692;74;21047;-60
2022/04/21 14:26:17;;;;;;;1.60;1.50;;;12.10;84.40;;;;;;1948655;74;21026;-61
2022/04/21 14:28:46;;;;;;;2.72;1.35;;;12.10;84.50;;;;;;1948651;74;21097;-60
2022/04/21 14:31:16;;;;;;;2.20;1.50;;;12.10;84.40;;;;;;1948657;74;21096;-60
2022/04/21 14:33:45;;;;;;;1.60;1.50;;;12.10;84.50;;;;;;1948718;74;20999;-60
2022/04/21 14:36:15;;;;;;;2.60;1.40;;;12.10;84.70;;;;;;1948594;74;21088;-60
2022/04/21 14:44:19;;;;;;;3.17;1.60;;;12.20;84.40;;;;;;1948633;74;21096;-60
2022/04/21 14:46:48;;;;;;;2.90;1.90;;;12.20;84.00;;;;;;1948616;74;21027;-60
2022/04/21 14:49:19;;;;;;;3.67;1.70;;;12.10;83.90;;;;;;1948599;74;21007;-60
2022/04/21 14:51:48;;;;;;;7.40;2.70;;;12.10;83.40;;;;;;1948719;74;20999;-60
2022/04/21 14:54:18;;;;;;;5.25;2.37;;;12.00;83.60;;;;;;1948717;74;21026;-60
2022/04/21 14:56:47;;;;;;;3.15;1.90;;;12.00;83.70;;;;;;1948693;74;20999;-60
2022/04/21 14:59:21;;;;;;;2.77;2.42;;;11.90;83.80;;;;;;1948560;74;21113;-60
2022/04/21 15:01:48;;;;;;;2.47;2.20;;;11.90;83.70;;;;;;1948179;74;21027;-60
2022/04/21 15:04:17;;;;;;;2.40;2.20;;;11.90;83.90;;;;;;1948778;73;21003;-60
2022/04/21 15:06:48;;;;;;;4.40;2.42;;;11.90;83.90;;;;;;1948769;74;21050;-60
2022/04/21 15:09:17;;;;;;;4.95;2.60;;;11.90;83.90;;;;;;1948740;74;21018;-60
2022/04/21 15:11:48;;;;;;;3.47;2.30;;;11.80;83.80;;;;;;1948682;74;21023;-60
2022/04/21 15:14:17;;;;;;;4.50;2.42;;;11.80;83.80;;;;;;1948735;74;20998;-60
2022/04/21 15:16:46;;;;;;;4.30;2.90;;;11.80;84.00;;;;;;1948794;74;21089;-60
2022/04/21 15:19:16;;;;;;;4.60;2.70;;;11.80;84.00;;;;;;1948824;74;21018;-60
2022/04/21 15:21:46;;;;;;;3.85;2.37;;;11.70;84.00;;;;;;1942051;73;21043;-60
2022/04/21 15:24:15;;;;;;;4.00;2.50;;;11.70;83.90;;;;;;1935632;74;21039;-60
2022/04/21 15:26:44;;;;;;;6.78;2.50;;;11.70;83.90;;;;;;1935718;74;21023;-60
2022/04/21 15:29:13;;;;;;;4.40;2.72;;;11.70;83.80;;;;;;1935849;74;21063;-60
2022/04/21 15:31:43;;;;;;;4.58;2.52;;;11.70;83.80;;;;;;1935612;74;21020;-60
2022/04/21 15:34:12;;;;;;;6.97;3.17;;;11.70;83.90;;;;;;1935705;74;21027;-60
2022/04/21 15:36:42;;;;;;;5.25;3.45;;;11.70;83.70;;;;;;1935601;74;21164;-60
2022/04/21 15:39:13;;;;;;;3.77;2.75;;;11.60;83.70;;;;;;1935595;74;21015;-60
2022/04/21 15:41:42;;;;;;;3.50;2.60;;;11.60;83.60;;;;;;1935696;74;21030;-60
2022/04/21 15:44:12;;;;;;;4.78;2.80;;;11.60;83.50;;;;;;1935560;74;21027;-60
2022/04/21 15:46:41;;;;;;;7.22;3.15;;;11.60;83.40;;;;;;1935783;74;21031;-61
2022/04/21 15:49:10;;;;;;;5.83;2.90;;;11.60;83.60;;;;;;1935624;74;21027;-60
2022/04/21 15:51:42;;;;;;;7.95;3.10;;;11.50;83.40;;;;;;1935645;74;21036;-60
2022/04/21 15:59:46;;;;;;;6.28;2.90;;;11.40;83.60;;;;;;1935721;74;21020;-60
2022/04/21 16:02:15;;;;;;;5.87;3.42;;;11.40;83.50;;;;;;1935596;74;21023;-60
2022/04/21 16:04:45;;;;;;;8.05;3.60;;;11.50;83.40;;;;;;1935486;74;21023;-60
2022/04/21 16:07:14;;;;;;;21.68;12.33;;;11.50;83.90;;;;;;1935695;74;21117;-60
2022/04/21 16:09:44;;;;;;;9.95;4.53;;;11.40;83.00;;;;;;1935524;74;21066;-60
2022/04/21 16:12:13;;;;;;;7.00;3.90;;;11.40;83.30;;;;;;1935695;74;21015;-60
2022/04/21 16:14:43;;;;;;;3.30;2.95;;;11.40;83.40;;;;;;1935702;74;21081;-60
2022/04/21 16:17:12;;;;;;;3.92;3.35;;;11.40;83.10;;;;;;1935614;74;21084;-60
2022/04/21 16:19:41;;;;;;;5.08;3.85;;;11.40;83.00;;;;;;1935792;74;21019;-60
2022/04/21 16:22:12;;;;;;;4.00;3.05;;;11.40;83.00;;;;;;1935674;73;21089;-59
2022/04/21 16:24:41;;;;;;;9.43;4.10;;;11.30;83.00;;;;;;1935683;74;21015;-60
2022/04/21 16:27:11;;;;;;;3.20;2.67;;;11.30;82.60;;;;;;1935765;74;21098;-60
2022/04/21 16:29:40;;;;;;;8.75;3.37;;;11.30;82.70;;;;;;1935594;74;21027;-60
2022/04/21 16:32:10;;;;;;;9.08;3.02;;;11.30;82.70;;;;;;1935603;74;21019;-60
2022/04/21 16:34:39;;;;;;;5.53;3.52;;;11.30;82.40;;;;;;1935601;74;21024;-60
2022/04/21 16:37:09;;;;;;;6.40;2.70;;;11.20;82.00;;;;;;1935767;74;21016;-60
2022/04/21 16:39:39;;;;;;;6.37;3.05;;;11.20;82.00;;;;;;1935718;74;20991;-60
2022/04/21 16:42:09;;;;;;;5.72;3.10;;;11.20;82.20;;;;;;1935732;74;21055;-60
2022/04/21 16:44:40;;;;;;;4.10;3.12;;;11.10;82.30;;;;;;1935556;74;21023;-60
2022/04/21 16:47:10;;;;;;;5.95;3.40;;;11.10;82.10;;;;;;1935761;74;21144;-60
2022/04/21 16:49:40;;;;;;;7.22;3.65;;;11.10;82.20;;;;;;1935722;74;21027;-60
2022/04/21 16:52:09;;;;;;;4.60;3.27;;;11.00;82.30;;;;;;1935716;74;21031;-60
2022/04/21 16:54:39;;;;;;;6.25;3.40;;;11.00;82.40;;;;;;1935732;74;21091;-60
2022/04/21 16:57:08;;;;;;;7.25;3.80;;;11.00;82.20;;;;;;1935733;74;21031;-60
2022/04/21 16:59:37;;;;;;;5.90;4.28;;;11.00;82.10;;;;;;1935589;74;21023;-60
2022/04/21 17:04:53;;;;;;;8.80;4.05;;;11.00;82.30;;;;;;1935595;74;21039;-60
2022/04/21 17:07:23;;;;;;;8.73;3.60;;;10.90;82.30;;;;;;1935596;74;21035;-60
2022/04/21 17:09:52;;;;;;;5.28;3.70;;;10.90;82.30;;;;;;1935784;74;21027;-60
2022/04/21 17:12:21;;;;;;;8.23;4.47;;;11.00;82.60;;;;;;1935546;74;21043;-60
2022/04/21 17:14:51;;;;;;;13.55;6.10;;;11.00;82.70;;;;;;1935745;74;21043;-60
2022/04/21 17:17:20;;;;;;;14.90;7.10;;;10.90;82.70;;;;;;1935604;74;21014;-60
2022/04/21 17:19:49;;;;;;;11.78;6.37;;;11.00;82.80;;;;;;1935597;74;21073;-60
2022/04/21 17:22:19;;;;;;;10.48;6.70;;;10.90;82.90;;;;;;1938304;74;21042;-60
2022/04/21 17:24:49;;;;;;;9.00;6.72;;;11.00;82.90;;;;;;1948599;74;21164;-60
2022/04/21 17:27:18;;;;;;;7.10;4.78;;;11.00;82.80;;;;;;1948953;73;21026;-60
2022/04/21 17:29:47;;;;;;;7.12;3.92;;;11.00;83.00;;;;;;1948884;74;21073;-60
2022/04/21 17:32:20;;;;;;;6.03;3.85;;;11.00;83.00;;;;;;1948965;74;21034;-60
2022/04/21 17:34:49;;;;;;;9.23;3.85;;;10.90;83.00;;;;;;1948899;74;21010;-60
2022/04/21 17:37:19;;;;;;;8.03;3.90;;;10.90;83.10;;;;;;1948704;74;21019;-60
2022/04/21 17:39:48;;;;;;;11.48;4.92;;;10.90;83.10;;;;;;1948777;74;21089;-60
2022/04/21 17:42:18;;;;;;;10.58;4.10;;;10.90;83.30;;;;;;1948669;74;21080;-60
2022/04/21 17:44:47;;;;;;;8.80;4.60;;;10.80;83.20;;;;;;1948630;74;21034;-60
2022/04/21 17:47:17;;;;;;;8.28;4.12;;;10.90;83.30;;;;;;1948735;74;21519;-60
2022/04/21 17:49:46;;;;;;;5.55;3.60;;;10.80;83.50;;;;;;1910652;75;21010;-60
2022/04/21 17:52:15;;;;;;;7.55;3.95;;;10.80;83.30;;;;;;1958548;73;21084;-60
2022/04/21 17:54:45;;;;;;;7.50;3.77;;;10.80;83.50;;;;;;1910709;75;21136;-60
2022/04/21 17:57:14;;;;;;;6.30;3.58;;;10.80;83.50;;;;;;1958607;73;21089;-60
2022/04/21 17:59:44;;;;;;;8.53;3.37;;;10.90;84.10;;;;;;1910589;75;21034;-60
2022/04/21 18:02:13;;;;;;;9.10;4.35;;;10.80;83.50;;;;;;1958548;73;21076;-60
2022/04/21 18:04:42;;;;;;;6.45;3.58;;;10.80;83.50;;;;;;1910668;75;21104;-60
2022/04/21 18:07:12;;;;;;;10.28;3.98;;;10.80;83.70;;;;;;1958598;73;21027;-60
2022/04/21 18:09:42;;;;;;;12.70;3.80;;;10.80;83.70;;;;;;1958713;73;21018;-60
2022/04/21 18:12:12;;;;;;;7.92;3.55;;;10.80;83.70;;;;;;1958639;73;21030;-60
2022/04/21 18:14:41;;;;;;;9.35;4.03;;;10.80;83.80;;;;;;1910575;75;21051;-60
2022/04/21 18:17:11;;;;;;;8.38;3.15;;;10.80;83.80;;;;;;1958551;73;21105;-60
2022/04/21 18:19:40;;;;;;;7.75;3.62;;;10.70;84.00;;;;;;1910581;75;21473;-60
2022/04/21 18:22:10;;;;;;;7.97;3.58;;;10.70;83.70;;;;;;1958642;73;21085;-60
2022/04/21 18:24:40;;;;;;;6.50;3.67;;;10.70;83.90;;;;;;1899370;75;21024;-60
2022/04/21 18:27:09;;;;;;;3.15;2.37;;;10.70;84.00;;;;;;1935525;74;21023;-60
2022/04/21 18:29:39;;;;;;;8.48;3.40;;;10.70;84.20;;;;;;1935729;74;21094;-60
2022/04/21 18:32:09;;;;;;;9.28;3.05;;;10.70;84.20;;;;;;1935608;74;21069;-60
2022/04/21 18:34:38;;;;;;;5.75;2.77;;;10.70;83.80;;;;;;1935586;74;21021;-60
2022/04/21 18:37:08;;;;;;;12.53;4.50;;;10.60;83.80;;;;;;1935652;74;21023;-60
2022/04/21 18:39:37;;;;;;;9.08;3.02;;;10.60;84.00;;;;;;1935577;74;21019;-60
2022/04/21 18:42:07;;;;;;;6.37;2.98;;;10.60;84.00;;;;;;1935652;74;21023;-60
2022/04/21 18:44:37;;;;;;;4.53;2.45;;;10.60;83.90;;;;;;1935722;74;21069;-59
2022/04/21 18:47:06;;;;;;;4.12;2.50;;;10.60;84.00;;;;;;1935644;74;21015;-60
2022/04/21 18:49:36;;;;;;;6.33;2.72;;;10.50;84.00;;;;;;1935668;74;21023;-60
2022/04/21 18:52:06;;;;;;;5.42;2.87;;;10.50;83.80;;;;;;1935602;74;21090;-60
2022/04/21 18:54:35;;;;;;;6.10;2.50;;;10.50;84.00;;;;;;1935642;74;21132;-60
2022/04/21 18:57:04;;;;;;;4.35;2.30;;;10.40;83.90;;;;;;1935642;74;21027;-60
2022/04/21 18:59:34;;;;;;;6.10;2.67;;;10.40;84.60;;;;;;1935670;74;21019;-59
2022/04/21 19:02:03;;;;;;;4.90;2.37;;;10.40;84.10;;;;;;1935761;74;21008;-60
2022/04/21 19:04:33;;;;;;;3.00;2.12;;;10.40;84.10;;;;;;1935654;74;21093;-60
2022/04/21 19:07:03;;;;;;;5.42;2.52;;;10.40;84.10;;;;;;1935720;74;21104;-60
2022/04/21 19:12:19;;;;;;;5.83;2.67;;;10.40;84.10;;;;;;1935666;74;21108;-60
2022/04/21 19:14:51;;;;;;;3.47;2.60;;;10.40;84.20;;;;;;1935778;74;21091;-60
2022/04/21 19:17:19;;;;;;;3.42;2.98;;;10.40;84.00;;;;;;1935420;74;21548;-60
2022/04/21 19:19:49;;;;;;;5.75;2.80;;;10.40;84.20;;;;;;1935772;74;21028;-60
2022/04/21 19:22:18;;;;;;;4.28;2.42;;;10.40;84.00;;;;;;1935768;74;20991;-60
2022/04/21 19:24:48;;;;;;;8.80;3.45;;;10.40;84.00;;;;;;1935592;74;21047;-60
2022/04/21 19:27:20;;;;;;;6.72;3.05;;;10.40;83.90;;;;;;1935750;74;21102;-60
2022/04/21 19:29:50;;;;;;;7.22;2.83;;;10.40;84.00;;;;;;1935766;74;21085;-60
2022/04/21 19:32:22;;;;;;;4.33;2.17;;;10.40;83.90;;;;;;1935640;74;21007;-60
2022/04/21 19:34:52;;;;;;;5.62;3.02;;;10.40;84.00;;;;;;1935789;74;20996;-60
2022/04/21 19:37:24;;;;;;;4.00;2.90;;;10.40;83.70;;;;;;1935658;74;20991;-60
2022/04/21 19:39:53;;;;;;;5.28;2.95;;;10.40;83.70;;;;;;1935829;74;21454;-60
2022/04/21 19:42:22;;;;;;;5.83;2.80;;;10.40;83.60;;;;;;1935722;74;21020;-60
2022/04/21 19:44:51;;;;;;;8.25;2.85;;;10.40;83.70;;;;;;1935607;74;21020;-60
2022/04/21 19:47:21;;;;;;;4.85;3.47;;;10.40;83.60;;;;;;1935645;74;21016;-60
2022/04/21 19:49:50;;;;;;;10.15;3.02;;;10.40;83.40;;;;;;1935777;74;20995;-59
2022/04/21 19:52:19;;;;;;;8.75;3.22;;;10.40;83.50;;;;;;1935700;74;21523;-60
2022/04/21 19:54:48;;;;;;;6.83;3.33;;;10.40;83.30;;;;;;1935734;74;21019;-59
2022/04/21 19:57:18;;;;;;;5.37;3.33;;;10.40;83.30;;;;;;1935653;74;21109;-60
2022/04/21 19:59:48;;;;;;;5.62;3.02;;;10.40;83.30;;;;;;1935731;74;21089;-60
2022/04/21 20:02:17;;;;;;;6.90;3.92;;;10.40;83.30;;;;;;1935605;74;21027;-60
2022/04/21 20:04:46;;;;;;;5.53;3.08;;;10.40;83.30;;;;;;1935725;74;21023;-60
2022/04/21 20:10:03;;;;;;;7.65;3.70;;;10.40;83.30;;;;;;1935917;74;21093;-60
2022/04/21 20:12:37;;;;;;;7.90;3.22;;;10.50;83.40;;;;;;1935724;74;21090;-60
2022/04/21 20:15:05;;;;;;;6.03;3.00;;;10.50;83.40;;;;;;1935557;74;21540;-60
2022/04/21 20:17:36;;;;;;;5.10;3.90;;;10.50;83.30;;;;;;1935779;74;21131;-60
2022/04/21 20:22:54;;;;;;;5.45;3.30;;;10.50;83.30;;;;;;1935730;74;21030;-60
2022/04/21 20:28:12;;;;;;;7.72;3.37;;;10.50;83.30;;;;;;1948799;74;21047;-59
2022/04/21 20:30:41;;;;;;;7.05;3.80;;;10.50;83.40;;;;;;1948738;73;21023;-60
2022/04/21 20:33:10;;;;;;;9.48;4.30;;;10.60;83.60;;;;;;1948761;74;21022;-60
2022/04/21 20:35:39;;;;;;;8.23;3.50;;;10.60;83.60;;;;;;1948844;74;21077;-60
2022/04/21 20:38:08;;;;;;;7.20;3.70;;;10.50;83.50;;;;;;1948821;74;21062;-60
2022/04/21 20:40:38;;;;;;;6.20;3.75;;;10.50;83.40;;;;;;1948811;73;20995;-60
2022/04/21 20:43:07;;;;;;;6.97;3.83;;;10.50;83.50;;;;;;1948694;73;21085;-60
2022/04/21 20:45:36;;;;;;;5.55;3.80;;;10.50;83.50;;;;;;1948667;74;21113;-60
2022/04/21 20:48:07;;;;;;;6.15;4.08;;;10.50;83.40;;;;;;1948690;74;21079;-60
2022/04/21 20:50:36;;;;;;;8.18;3.87;;;10.50;83.50;;;;;;1948847;74;21495;-60
2022/04/21 20:53:06;;;;;;;4.50;3.40;;;10.50;83.50;;;;;;1948716;74;21066;-59
2022/04/21 20:55:35;;;;;;;9.85;3.83;;;10.50;83.50;;;;;;1948717;74;21035;-60
2022/04/21 20:58:06;;;;;;;5.62;3.47;;;10.50;83.50;;;;;;1948793;74;20995;-60
2022/04/21 21:00:36;;;;;;;9.15;3.80;;;10.50;83.70;;;;;;1948839;73;21088;-59
2022/04/21 21:03:08;;;;;;;4.85;3.17;;;10.50;83.60;;;;;;1948762;73;21066;-60
2022/04/21 21:05:37;;;;;;;7.10;3.90;;;10.50;83.80;;;;;;1910579;75;21078;-60
2022/04/21 21:08:07;;;;;;;7.67;3.95;;;10.50;83.70;;;;;;1958698;73;21081;-60
2022/04/21 21:10:36;;;;;;;5.17;3.80;;;10.50;83.50;;;;;;1910731;75;21038;-59
2022/04/21 21:13:06;;;;;;;4.78;3.87;;;10.50;83.50;;;;;;1958569;73;21074;-60
2022/04/21 21:15:35;;;;;;;6.35;3.95;;;10.40;83.50;;;;;;1910677;75;21023;-60
2022/04/21 21:18:05;;;;;;;13.22;4.10;;;10.40;83.50;;;;;;1958646;73;21014;-59
2022/04/21 21:20:34;;;;;;;8.05;3.50;;;10.40;83.60;;;;;;1958758;73;21010;-60
2022/04/21 21:23:03;;;;;;;7.08;3.25;;;10.40;83.80;;;;;;1910711;75;21015;-60
2022/04/21 21:25:34;;;;;;;4.03;3.30;;;10.40;83.70;;;;;;1958519;73;21050;-60
2022/04/21 21:28:02;;;;;;;9.08;3.40;;;10.30;83.60;;;;;;1910703;75;21027;-60
2022/04/21 21:30:32;;;;;;;4.40;3.10;;;10.40;83.80;;;;;;1958631;73;21046;-59
2022/04/21 21:33:01;;;;;;;4.20;2.90;;;10.40;83.80;;;;;;1910825;75;21051;-60
2022/04/21 21:35:31;;;;;;;7.40;3.30;;;10.30;83.80;;;;;;1958746;73;21006;-59
2022/04/21 21:38:00;;;;;;;6.83;2.85;;;10.30;83.70;;;;;;1910683;75;21017;-59
2022/04/21 21:40:29;;;;;;;13.65;4.00;;;10.30;83.70;;;;;;1958820;73;21030;-60
2022/04/21 21:42:59;;;;;;;4.08;2.83;;;10.30;83.80;;;;;;1958911;73;20998;-60
2022/04/21 21:45:28;;;;;;;5.22;3.05;;;10.30;83.80;;;;;;1958550;73;21010;-60
2022/04/21 21:47:58;;;;;;;5.50;2.75;;;10.30;83.70;;;;;;1958578;73;21019;-60
2022/04/21 21:53:14;;;;;;;4.87;2.40;;;10.30;83.70;;;;;;1958696;73;21030;-60
2022/04/21 21:55:44;;;;;;;12.43;3.22;;;10.30;83.60;;;;;;1958598;73;21018;-60
2022/04/21 21:58:16;;;;;;;4.85;2.62;;;10.30;83.60;;;;;;1958688;73;21030;-59
2022/04/21 22:00:53;;;;;;;2.62;2.00;;;10.30;83.60;;;;;;1958784;73;21046;-59
2022/04/21 22:03:22;;;;;;;4.25;2.52;;;10.30;83.60;;;;;;1958597;73;21080;-60
2022/04/21 22:05:52;;;;;;;3.80;2.45;;;10.30;83.60;;;;;;1958539;73;21100;-60
2022/04/21 22:08:21;;;;;;;4.67;3.12;;;10.30;83.50;;;;;;1958558;73;21010;-60
2022/04/21 22:10:51;;;;;;;3.80;2.45;;;10.30;83.50;;;;;;1958695;73;21018;-59
2022/04/21 22:13:20;;;;;;;2.60;2.20;;;10.30;83.60;;;;;;1958677;73;21100;-60
2022/04/21 22:15:49;;;;;;;4.03;2.22;;;10.30;83.60;;;;;;1958596;73;21161;-60
2022/04/21 22:18:19;;;;;;;4.47;1.90;;;10.30;83.60;;;;;;1958668;73;21084;-60
2022/04/21 22:20:48;;;;;;;6.45;2.77;;;10.30;83.60;;;;;;1958674;73;21096;-60
2022/04/21 22:23:18;;;;;;;3.60;1.92;;;10.30;83.60;;;;;;1958541;73;21022;-60
2022/04/21 22:25:47;;;;;;;3.75;2.10;;;10.30;83.80;;;;;;1955359;73;21106;-60
2022/04/21 22:28:17;;;;;;;7.70;2.50;;;10.30;83.70;;;;;;1948281;74;21066;-60
2022/04/21 22:30:46;;;;;;;2.83;1.95;;;10.30;83.60;;;;;;1948293;74;21074;-60
2022/04/21 22:33:16;;;;;;;3.42;1.62;;;10.30;83.60;;;;;;1948384;74;21046;-60
2022/04/21 22:35:45;;;;;;;3.45;1.85;;;10.30;83.70;;;;;;1948537;74;21076;-60
2022/04/21 22:38:14;;;;;;;4.20;2.02;;;10.30;83.50;;;;;;1948420;74;21018;-60
2022/04/21 22:40:44;;;;;;;2.30;2.10;;;10.30;83.60;;;;;;1948440;74;20999;-60
2022/04/21 22:43:13;;;;;;;3.35;1.67;;;10.30;83.60;;;;;;1948498;74;21096;-60
2022/04/21 22:45:43;;;;;;;1.75;1.60;;;10.20;83.50;;;;;;1948370;74;21094;-60
2022/04/21 22:48:12;;;;;;;3.42;2.10;;;10.30;83.70;;;;;;1948404;74;21015;-60
2022/04/21 22:50:42;;;;;;;7.35;2.65;;;10.20;83.70;;;;;;1948531;74;21011;-60
2022/04/21 22:53:12;;;;;;;6.72;2.10;;;10.20;84.00;;;;;;1948472;74;21084;-60
2022/04/21 22:55:41;;;;;;;2.40;2.05;;;10.20;83.80;;;;;;1948541;74;21022;-60
2022/04/21 22:58:11;;;;;;;3.98;2.40;;;10.20;83.80;;;;;;1948374;74;21070;-60
2022/04/21 23:00:40;;;;;;;5.12;2.40;;;10.20;83.80;;;;;;1948462;74;21018;-60
2022/04/21 23:03:09;;;;;;;4.30;2.00;;;10.20;83.80;;;;;;1948379;74;20995;-60
2022/04/21 23:05:40;;;;;;;5.97;2.40;;;10.10;83.80;;;;;;1948374;74;21035;-60
2022/04/21 23:08:09;;;;;;;5.75;2.50;;;10.10;84.00;;;;;;1948291;74;21023;-60
2022/04/21 23:13:28;;;;;;;15.32;3.02;;;10.20;84.00;;;;;;1948303;74;21080;-59
2022/04/21 23:16:03;;;;;;;7.62;2.65;;;10.20;84.20;;;;;;1948393;74;21096;-59
2022/04/21 23:18:33;;;;;;;5.12;2.72;;;10.20;84.20;;;;;;1948567;74;21008;-59
2022/04/21 23:21:05;;;;;;;6.10;2.80;;;10.20;84.10;;;;;;1948333;74;21043;-59
2022/04/21 23:23:40;;;;;;;4.45;3.15;;;10.20;84.40;;;;;;1948429;74;21011;-59
2022/04/21 23:26:08;;;;;;;;;;;10.10;84.30;;;;;;1953244;73;21120;-59
2022/04/21 23:28:39;;;;;;;3.05;2.72;;;10.10;84.70;;;;;;1958691;73;20132;-59
2022/04/21 23:31:08;;;;;;;4.53;3.05;;;10.20;84.10;;;;;;1910744;75;21094;-59
2022/04/21 23:33:37;;;;;;;4.60;3.17;;;10.20;84.40;;;;;;1958711;73;21054;-60
2022/04/21 23:36:07;;;;;;;3.83;3.25;;;10.20;84.20;;;;;;1910647;75;21570;-59
2022/04/21 23:38:37;;;;;;;6.35;3.67;;;10.10;84.30;;;;;;1958697;73;21018;-60
2022/04/21 23:41:06;;;;;;;4.22;3.10;;;10.10;84.80;;;;;;1910770;75;21081;-60
2022/04/21 23:43:36;;;;;;;7.12;4.03;;;10.10;84.40;;;;;;1958770;73;20990;-59
2022/04/21 23:46:05;;;;;;;4.60;3.52;;;10.10;84.50;;;;;;1910641;75;21089;-59
2022/04/21 23:48:34;;;;;;;3.85;3.05;;;10.10;84.30;;;;;;1958779;73;21030;-59
2022/04/21 23:51:04;;;;;;;4.50;3.15;;;10.10;84.50;;;;;;1910746;75;21019;-59
2022/04/21 23:53:37;;;;;;;4.80;3.15;;;10.10;84.40;;;;;;1958759;73;21019;-59
2022/04/21 23:56:06;;;;;;;3.12;2.83;;;10.10;84.50;;;;;;1910642;75;21046;-60
2022/04/21 23:58:35;;;;;;;6.05;3.58;;;10.00;84.60;;;;;;1958725;73;21084;-60
